sensor_id;sensor_type;location;lat;lon;timestamp;P1;durP1;ratioP1;P2;durP2;ratioP2
34453;SDS011;60061;52.080;5.312;2022-09-16T00:00:41;3.0;;;1.2;;
34453;SDS011;60061;52.080;5.312;2022-09-16T00:02:18;8.1;;;1.5;;
34453;SDS011;60061;52.080;5.312;2022-09-16T00:03:55;4.7;;;1.4;;
34453;SDS011;60061;52.080;5.312;2022-09-16T00:05:31;3.8;;;1.2;;
34453;SDS011;60061;52.080;5.312;2022-09-16T00:08:44;2.8;;;1.3;;
34453;SDS011;60061;52.080;5.312;2022-09-16T00:10:21;2.31;;;1.11;;
34453;SDS011;60061;52.080;5.312;2022-09-16T00:11:58;4.1;;;1.3;;
34453;SDS011;60061;52.080;5.312;2022-09-16T00:15:12;2.6;;;1.3;;
34453;SDS011;60061;52.080;5.312;2022-09-16T00:16:49;6.5;;;1.3;;
34453;SDS011;60061;52.080;5.312;2022-09-16T00:18:25;2.21;;;1.2;;
34453;SDS011;60061;52.080;5.312;2022-09-16T00:21:38;5.3;;;1.7;;
34453;SDS011;60061;52.080;5.312;2022-09-16T00:23:14;1.6;;;1.0;;
34453;SDS011;60061;52.080;5.312;2022-09-16T00:24:51;3.2;;;1.2;;
34453;SDS011;60061;52.080;5.312;2022-09-16T00:26:28;3.3;;;1.11;;
34453;SDS011;60061;52.080;5.312;2022-09-16T00:29:41;2.6;;;1.11;;
34453;SDS011;60061;52.080;5.312;2022-09-16T00:31:17;3.1;;;1.0;;
34453;SDS011;60061;52.080;5.312;2022-09-16T00:32:53;2.0;;;1.11;;
34453;SDS011;60061;52.080;5.312;2022-09-16T00:36:07;3.0;;;1.11;;
34453;SDS011;60061;52.080;5.312;2022-09-16T00:37:45;2.9;;;0.9;;
34453;SDS011;60061;52.080;5.312;2022-09-16T00:39:21;3.9;;;1.2;;
34453;SDS011;60061;52.080;5.312;2022-09-16T00:42:35;3.9;;;1.2;;
34453;SDS011;60061;52.080;5.312;2022-09-16T00:45:18;5.11;;;1.3;;
34453;SDS011;60061;52.080;5.312;2022-09-16T00:46:57;4.2;;;1.3;;
34453;SDS011;60061;52.080;5.312;2022-09-16T00:48:34;5.2;;;1.6;;
34453;SDS011;60061;52.080;5.312;2022-09-16T00:50:11;5.4;;;1.4;;
34453;SDS011;60061;52.080;5.312;2022-09-16T00:51:54;4.3;;;1.3;;
34453;SDS011;60061;52.080;5.312;2022-09-16T00:53:37;7.4;;;1.7;;
34453;SDS011;60061;52.080;5.312;2022-09-16T00:57:06;4.3;;;1.5;;
34453;SDS011;60061;52.080;5.312;2022-09-16T00:58:46;2.6;;;1.3;;
34453;SDS011;60061;52.080;5.312;2022-09-16T01:00:26;7.4;;;1.4;;
34453;SDS011;60061;52.080;5.312;2022-09-16T01:02:04;4.7;;;1.4;;
34453;SDS011;60061;52.080;5.312;2022-09-16T01:05:26;6.8;;;1.6;;
34453;SDS011;60061;52.080;5.312;2022-09-16T01:07:03;6.8;;;1.6;;
34453;SDS011;60061;52.080;5.312;2022-09-16T01:08:39;4.5;;;1.6;;
34453;SDS011;60061;52.080;5.312;2022-09-16T01:10:19;4.5;;;1.3;;
34453;SDS011;60061;52.080;5.312;2022-09-16T01:13:33;3.7;;;1.5;;
34453;SDS011;60061;52.080;5.312;2022-09-16T01:15:10;6.5;;;1.3;;
34453;SDS011;60061;52.080;5.312;2022-09-16T01:16:49;4.0;;;1.5;;
34453;SDS011;60061;52.080;5.312;2022-09-16T01:20:23;3.4;;;1.3;;
34453;SDS011;60061;52.080;5.312;2022-09-16T01:23:35;5.11;;;1.4;;
34453;SDS011;60061;52.080;5.312;2022-09-16T01:26:10;4.2;;;1.3;;
34453;SDS011;60061;52.080;5.312;2022-09-16T01:28:10;4.8;;;1.4;;
34453;SDS011;60061;52.080;5.312;2022-09-16T01:30:17;3.5;;;1.4;;
34453;SDS011;60061;52.080;5.312;2022-09-16T01:32:37;4.41;;;1.4;;
34453;SDS011;60061;52.080;5.312;2022-09-16T01:34:25;6.0;;;1.3;;
34453;SDS011;60061;52.080;5.312;2022-09-16T01:36:18;4.7;;;1.3;;
34453;SDS011;60061;52.080;5.312;2022-09-16T01:38:08;4.1;;;1.3;;
34453;SDS011;60061;52.080;5.312;2022-09-16T01:40:01;4.3;;;1.4;;
34453;SDS011;60061;52.080;5.312;2022-09-16T01:41:49;5.3;;;1.7;;
34453;SDS011;60061;52.080;5.312;2022-09-16T01:45:26;3.0;;;1.3;;
34453;SDS011;60061;52.080;5.312;2022-09-16T01:47:13;6.6;;;1.5;;
34453;SDS011;60061;52.080;5.312;2022-09-16T01:48:56;4.3;;;1.5;;
34453;SDS011;60061;52.080;5.312;2022-09-16T01:50:41;5.3;;;1.6;;
34453;SDS011;60061;52.080;5.312;2022-09-16T01:52:24;4.3;;;1.6;;
34453;SDS011;60061;52.080;5.312;2022-09-16T01:55:59;5.7;;;1.3;;
34453;SDS011;60061;52.080;5.312;2022-09-16T01:57:43;4.0;;;1.3;;
34453;SDS011;60061;52.080;5.312;2022-09-16T01:59:30;3.2;;;1.2;;
34453;SDS011;60061;52.080;5.312;2022-09-16T02:01:13;3.9;;;1.3;;
34453;SDS011;60061;52.080;5.312;2022-09-16T02:02:58;5.11;;;1.5;;
34453;SDS011;60061;52.080;5.312;2022-09-16T02:06:22;3.8;;;1.3;;
34453;SDS011;60061;52.080;5.312;2022-09-16T02:08:04;2.8;;;1.11;;
34453;SDS011;60061;52.080;5.312;2022-09-16T02:09:47;2.4;;;1.3;;
34453;SDS011;60061;52.080;5.312;2022-09-16T02:11:27;3.5;;;1.2;;
34453;SDS011;60061;52.080;5.312;2022-09-16T02:13:07;5.8;;;1.5;;
34453;SDS011;60061;52.080;5.312;2022-09-16T02:16:33;2.5;;;1.11;;
34453;SDS011;60061;52.080;5.312;2022-09-16T02:18:13;3.5;;;1.4;;
34453;SDS011;60061;52.080;5.312;2022-09-16T02:19:57;3.0;;;1.3;;
34453;SDS011;60061;52.080;5.312;2022-09-16T02:21:38;4.0;;;1.0;;
34453;SDS011;60061;52.080;5.312;2022-09-16T02:24:57;2.8;;;1.2;;
34453;SDS011;60061;52.080;5.312;2022-09-16T02:26:36;4.41;;;1.3;;
34453;SDS011;60061;52.080;5.312;2022-09-16T02:28:22;1.8;;;1.2;;
34453;SDS011;60061;52.080;5.312;2022-09-16T02:30:05;3.2;;;1.2;;
34453;SDS011;60061;52.080;5.312;2022-09-16T02:33:25;6.2;;;1.4;;
34453;SDS011;60061;52.080;5.312;2022-09-16T02:35:08;4.41;;;1.7;;
34453;SDS011;60061;52.080;5.312;2022-09-16T02:36:49;3.0;;;1.2;;
34453;SDS011;60061;52.080;5.312;2022-09-16T02:38:31;4.5;;;1.2;;
34453;SDS011;60061;52.080;5.312;2022-09-16T02:41:56;2.5;;;1.4;;
34453;SDS011;60061;52.080;5.312;2022-09-16T02:43:34;2.4;;;1.2;;
34453;SDS011;60061;52.080;5.312;2022-09-16T02:45:10;2.8;;;1.11;;
34453;SDS011;60061;52.080;5.312;2022-09-16T02:46:49;1.9;;;1.2;;
34453;SDS011;60061;52.080;5.312;2022-09-16T02:50:22;5.5;;;1.5;;
34453;SDS011;60061;52.080;5.312;2022-09-16T02:52:08;4.8;;;1.2;;
34453;SDS011;60061;52.080;5.312;2022-09-16T02:53:53;3.6;;;1.5;;
34453;SDS011;60061;52.080;5.312;2022-09-16T02:55:38;2.9;;;1.3;;
34453;SDS011;60061;52.080;5.312;2022-09-16T02:57:26;3.6;;;1.5;;
34453;SDS011;60061;52.080;5.312;2022-09-16T03:00:44;5.11;;;1.8;;
34453;SDS011;60061;52.080;5.312;2022-09-16T03:02:23;3.2;;;1.7;;
34453;SDS011;60061;52.080;5.312;2022-09-16T03:04:00;4.5;;;1.7;;
34453;SDS011;60061;52.080;5.312;2022-09-16T03:05:38;7.2;;;2.21;;
34453;SDS011;60061;52.080;5.312;2022-09-16T03:08:02;4.7;;;1.7;;
34453;SDS011;60061;52.080;5.312;2022-09-16T03:09:39;6.2;;;1.8;;
34453;SDS011;60061;52.080;5.312;2022-09-16T03:14:54;6.2;;;1.9;;
34453;SDS011;60061;52.080;5.312;2022-09-16T03:16:53;4.91;;;1.6;;
34453;SDS011;60061;52.080;5.312;2022-09-16T03:18:48;4.8;;;2.1;;
34453;SDS011;60061;52.080;5.312;2022-09-16T03:20:34;4.3;;;1.8;;
34453;SDS011;60061;52.080;5.312;2022-09-16T03:22:23;6.4;;;1.8;;
34453;SDS011;60061;52.080;5.312;2022-09-16T03:24:15;6.7;;;2.0;;
34453;SDS011;60061;52.080;5.312;2022-09-16T03:27:47;3.7;;;1.6;;
34453;SDS011;60061;52.080;5.312;2022-09-16T03:29:31;3.6;;;1.8;;
34453;SDS011;60061;52.080;5.312;2022-09-16T03:31:12;5.0;;;1.6;;
34453;SDS011;60061;52.080;5.312;2022-09-16T03:32:55;2.9;;;1.4;;
34453;SDS011;60061;52.080;5.312;2022-09-16T03:36:19;5.7;;;1.6;;
34453;SDS011;60061;52.080;5.312;2022-09-16T03:38:07;2.7;;;1.4;;
34453;SDS011;60061;52.080;5.312;2022-09-16T03:39:47;3.6;;;1.6;;
34453;SDS011;60061;52.080;5.312;2022-09-16T03:41:26;4.91;;;1.8;;
34453;SDS011;60061;52.080;5.312;2022-09-16T03:43:08;2.31;;;1.6;;
34453;SDS011;60061;52.080;5.312;2022-09-16T03:46:24;3.6;;;1.5;;
34453;SDS011;60061;52.080;5.312;2022-09-16T03:48:02;5.6;;;1.6;;
34453;SDS011;60061;52.080;5.312;2022-09-16T03:49:38;5.11;;;1.6;;
34453;SDS011;60061;52.080;5.312;2022-09-16T03:52:50;3.6;;;1.6;;
34453;SDS011;60061;52.080;5.312;2022-09-16T03:54:26;3.6;;;1.6;;
34453;SDS011;60061;52.080;5.312;2022-09-16T03:56:02;3.7;;;1.5;;
34453;SDS011;60061;52.080;5.312;2022-09-16T03:57:39;3.6;;;1.5;;
34453;SDS011;60061;52.080;5.312;2022-09-16T04:00:52;3.6;;;1.5;;
34453;SDS011;60061;52.080;5.312;2022-09-16T04:02:29;4.1;;;1.11;;
34453;SDS011;60061;52.080;5.312;2022-09-16T04:04:05;3.8;;;1.3;;
34453;SDS011;60061;52.080;5.312;2022-09-16T04:07:18;3.0;;;1.3;;
34453;SDS011;60061;52.080;5.312;2022-09-16T04:08:56;2.8;;;1.2;;
34453;SDS011;60061;52.080;5.312;2022-09-16T04:10:37;3.1;;;1.2;;
34453;SDS011;60061;52.080;5.312;2022-09-16T04:13:49;4.41;;;1.5;;
34453;SDS011;60061;52.080;5.312;2022-09-16T04:15:25;2.0;;;1.11;;
34453;SDS011;60061;52.080;5.312;2022-09-16T04:17:02;2.9;;;1.11;;
34453;SDS011;60061;52.080;5.312;2022-09-16T04:18:39;3.4;;;1.2;;
34453;SDS011;60061;52.080;5.312;2022-09-16T04:21:51;4.1;;;1.11;;
34453;SDS011;60061;52.080;5.312;2022-09-16T04:23:27;2.31;;;1.0;;
34453;SDS011;60061;52.080;5.312;2022-09-16T04:25:06;3.1;;;1.11;;
34453;SDS011;60061;52.080;5.312;2022-09-16T04:28:20;4.61;;;1.4;;
34453;SDS011;60061;52.080;5.312;2022-09-16T04:29:56;3.0;;;1.11;;
34453;SDS011;60061;52.080;5.312;2022-09-16T04:31:33;2.9;;;1.0;;
34453;SDS011;60061;52.080;5.312;2022-09-16T04:34:47;2.7;;;1.2;;
34453;SDS011;60061;52.080;5.312;2022-09-16T04:36:23;1.8;;;1.11;;
34453;SDS011;60061;52.080;5.312;2022-09-16T04:38:00;4.61;;;1.3;;
34453;SDS011;60061;52.080;5.312;2022-09-16T04:39:36;2.9;;;1.2;;
34453;SDS011;60061;52.080;5.312;2022-09-16T04:42:51;2.8;;;1.2;;
34453;SDS011;60061;52.080;5.312;2022-09-16T04:44:29;2.7;;;1.2;;
34453;SDS011;60061;52.080;5.312;2022-09-16T04:46:06;2.7;;;1.0;;
34453;SDS011;60061;52.080;5.312;2022-09-16T04:49:19;3.8;;;1.2;;
34453;SDS011;60061;52.080;5.312;2022-09-16T04:51:00;3.2;;;1.3;;
34453;SDS011;60061;52.080;5.312;2022-09-16T04:52:38;4.2;;;1.3;;
34453;SDS011;60061;52.080;5.312;2022-09-16T04:54:14;2.9;;;1.11;;
34453;SDS011;60061;52.080;5.312;2022-09-16T04:57:28;3.3;;;1.4;;
34453;SDS011;60061;52.080;5.312;2022-09-16T04:59:05;3.4;;;1.2;;
34453;SDS011;60061;52.080;5.312;2022-09-16T05:00:42;3.3;;;1.6;;
34453;SDS011;60061;52.080;5.312;2022-09-16T05:03:56;4.3;;;1.4;;
34453;SDS011;60061;52.080;5.312;2022-09-16T05:05:35;3.0;;;1.5;;
34453;SDS011;60061;52.080;5.312;2022-09-16T05:07:10;2.0;;;1.3;;
34453;SDS011;60061;52.080;5.312;2022-09-16T05:08:47;3.5;;;1.5;;
34453;SDS011;60061;52.080;5.312;2022-09-16T05:12:00;2.4;;;1.2;;
34453;SDS011;60061;52.080;5.312;2022-09-16T05:13:36;2.4;;;1.2;;
34453;SDS011;60061;52.080;5.312;2022-09-16T05:15:13;2.7;;;1.4;;
34453;SDS011;60061;52.080;5.312;2022-09-16T05:18:26;2.1;;;1.11;;
34453;SDS011;60061;52.080;5.312;2022-09-16T05:20:03;3.2;;;1.5;;
34453;SDS011;60061;52.080;5.312;2022-09-16T05:21:40;5.4;;;1.4;;
34453;SDS011;60061;52.080;5.312;2022-09-16T05:24:53;4.61;;;1.8;;
34453;SDS011;60061;52.080;5.312;2022-09-16T05:26:31;4.61;;;1.5;;
34453;SDS011;60061;52.080;5.312;2022-09-16T05:28:10;6.5;;;1.8;;
34453;SDS011;60061;52.080;5.312;2022-09-16T05:29:46;2.21;;;1.4;;
34453;SDS011;60061;52.080;5.312;2022-09-16T05:33:01;2.8;;;1.7;;
34453;SDS011;60061;52.080;5.312;2022-09-16T05:34:37;2.5;;;1.5;;
34453;SDS011;60061;52.080;5.312;2022-09-16T05:36:14;2.5;;;1.5;;
34453;SDS011;60061;52.080;5.312;2022-09-16T05:39:29;3.6;;;1.3;;
34453;SDS011;60061;52.080;5.312;2022-09-16T05:41:05;4.7;;;1.8;;
34453;SDS011;60061;52.080;5.312;2022-09-16T05:42:42;3.3;;;1.4;;
34453;SDS011;60061;52.080;5.312;2022-09-16T05:45:55;4.61;;;1.6;;
34453;SDS011;60061;52.080;5.312;2022-09-16T05:47:32;5.9;;;1.5;;
34453;SDS011;60061;52.080;5.312;2022-09-16T05:49:08;3.2;;;1.6;;
34453;SDS011;60061;52.080;5.312;2022-09-16T05:50:50;6.0;;;2.31;;
34453;SDS011;60061;52.080;5.312;2022-09-16T05:54:03;5.2;;;2.0;;
34453;SDS011;60061;52.080;5.312;2022-09-16T05:55:40;6.6;;;1.8;;
34453;SDS011;60061;52.080;5.312;2022-09-16T05:57:17;3.5;;;1.8;;
34453;SDS011;60061;52.080;5.312;2022-09-16T06:00:32;4.5;;;1.8;;
34453;SDS011;60061;52.080;5.312;2022-09-16T06:02:08;9.6;;;1.9;;
34453;SDS011;60061;52.080;5.312;2022-09-16T06:03:46;4.91;;;2.9;;
34453;SDS011;60061;52.080;5.312;2022-09-16T06:05:23;5.4;;;2.0;;
34453;SDS011;60061;52.080;5.312;2022-09-16T06:08:37;3.6;;;1.9;;
34453;SDS011;60061;52.080;5.312;2022-09-16T06:10:15;6.3;;;1.7;;
34453;SDS011;60061;52.080;5.312;2022-09-16T06:11:51;6.9;;;1.8;;
34453;SDS011;60061;52.080;5.312;2022-09-16T06:15:06;4.7;;;1.7;;
34453;SDS011;60061;52.080;5.312;2022-09-16T06:16:43;5.0;;;1.5;;
34453;SDS011;60061;52.080;5.312;2022-09-16T06:18:21;3.5;;;1.5;;
34453;SDS011;60061;52.080;5.312;2022-09-16T06:19:58;4.41;;;1.6;;
34453;SDS011;60061;52.080;5.312;2022-09-16T06:23:12;3.0;;;1.6;;
34453;SDS011;60061;52.080;5.312;2022-09-16T06:24:49;3.0;;;1.6;;
34453;SDS011;60061;52.080;5.312;2022-09-16T06:26:26;4.91;;;1.9;;
34453;SDS011;60061;52.080;5.312;2022-09-16T06:29:40;3.9;;;1.4;;
34453;SDS011;60061;52.080;5.312;2022-09-16T06:31:16;5.8;;;1.6;;
34453;SDS011;60061;52.080;5.312;2022-09-16T06:32:54;3.6;;;1.8;;
34453;SDS011;60061;52.080;5.312;2022-09-16T06:36:09;7.7;;;1.9;;
34453;SDS011;60061;52.080;5.312;2022-09-16T06:37:47;7.0;;;2.1;;
34453;SDS011;60061;52.080;5.312;2022-09-16T06:39:23;6.5;;;1.8;;
34453;SDS011;60061;52.080;5.312;2022-09-16T06:40:59;6.2;;;1.9;;
34453;SDS011;60061;52.080;5.312;2022-09-16T06:44:15;7.6;;;2.1;;
34453;SDS011;60061;52.080;5.312;2022-09-16T06:45:50;7.2;;;2.0;;
34453;SDS011;60061;52.080;5.312;2022-09-16T06:47:32;5.2;;;1.7;;
34453;SDS011;60061;52.080;5.312;2022-09-16T06:50:46;4.7;;;1.8;;
34453;SDS011;60061;52.080;5.312;2022-09-16T06:52:22;4.7;;;1.9;;
34453;SDS011;60061;52.080;5.312;2022-09-16T06:53:59;7.0;;;2.0;;
34453;SDS011;60061;52.080;5.312;2022-09-16T06:55:39;4.7;;;1.8;;
34453;SDS011;60061;52.080;5.312;2022-09-16T06:58:52;6.0;;;2.31;;
34453;SDS011;60061;52.080;5.312;2022-09-16T07:00:29;5.6;;;1.8;;
34453;SDS011;60061;52.080;5.312;2022-09-16T07:02:05;6.2;;;2.0;;
34453;SDS011;60061;52.080;5.312;2022-09-16T07:05:23;6.5;;;2.0;;
34453;SDS011;60061;52.080;5.312;2022-09-16T07:06:59;5.5;;;1.7;;
34453;SDS011;60061;52.080;5.312;2022-09-16T07:08:35;4.8;;;1.9;;
34453;SDS011;60061;52.080;5.312;2022-09-16T07:10:13;5.0;;;1.8;;
34453;SDS011;60061;52.080;5.312;2022-09-16T07:13:26;9.21;;;1.8;;
34453;SDS011;60061;52.080;5.312;2022-09-16T07:15:03;7.1;;;1.9;;
34453;SDS011;60061;52.080;5.312;2022-09-16T07:16:40;8.4;;;1.6;;
34453;SDS011;60061;52.080;5.312;2022-09-16T07:19:52;6.1;;;1.9;;
34453;SDS011;60061;52.080;5.312;2022-09-16T07:21:29;6.1;;;1.7;;
34453;SDS011;60061;52.080;5.312;2022-09-16T07:23:05;6.8;;;1.9;;
34453;SDS011;60061;52.080;5.312;2022-09-16T07:26:18;6.0;;;1.6;;
34453;SDS011;60061;52.080;5.312;2022-09-16T07:27:57;7.7;;;1.9;;
34453;SDS011;60061;52.080;5.312;2022-09-16T07:29:33;4.0;;;1.7;;
34453;SDS011;60061;52.080;5.312;2022-09-16T07:31:10;7.3;;;1.7;;
34453;SDS011;60061;52.080;5.312;2022-09-16T07:34:26;6.8;;;1.9;;
34453;SDS011;60061;52.080;5.312;2022-09-16T07:36:02;5.4;;;1.8;;
34453;SDS011;60061;52.080;5.312;2022-09-16T07:37:39;7.5;;;2.0;;
34453;SDS011;60061;52.080;5.312;2022-09-16T07:42:38;4.3;;;1.9;;
34453;SDS011;60061;52.080;5.312;2022-09-16T07:44:16;5.3;;;2.0;;
34453;SDS011;60061;52.080;5.312;2022-09-16T07:45:55;10.3;;;2.21;;
34453;SDS011;60061;52.080;5.312;2022-09-16T07:49:09;7.9;;;1.9;;
34453;SDS011;60061;52.080;5.312;2022-09-16T07:50:53;7.9;;;2.0;;
34453;SDS011;60061;52.080;5.312;2022-09-16T07:52:30;4.91;;;1.6;;
34453;SDS011;60061;52.080;5.312;2022-09-16T07:54:08;4.5;;;1.6;;
34453;SDS011;60061;52.080;5.312;2022-09-16T07:57:23;4.2;;;1.5;;
34453;SDS011;60061;52.080;5.312;2022-09-16T07:59:00;6.7;;;1.4;;
34453;SDS011;60061;52.080;5.312;2022-09-16T08:00:38;4.1;;;1.2;;
34453;SDS011;60061;52.080;5.312;2022-09-16T08:03:51;8.71;;;1.7;;
34453;SDS011;60061;52.080;5.312;2022-09-16T08:05:28;2.7;;;1.2;;
34453;SDS011;60061;52.080;5.312;2022-09-16T08:07:04;3.7;;;1.11;;
34453;SDS011;60061;52.080;5.312;2022-09-16T08:08:41;5.6;;;1.0;;
34453;SDS011;60061;52.080;5.312;2022-09-16T08:11:56;4.5;;;1.11;;
34453;SDS011;60061;52.080;5.312;2022-09-16T08:13:33;3.9;;;1.2;;
34453;SDS011;60061;52.080;5.312;2022-09-16T08:15:11;3.7;;;1.0;;
34453;SDS011;60061;52.080;5.312;2022-09-16T08:18:27;4.7;;;1.2;;
34453;SDS011;60061;52.080;5.312;2022-09-16T08:20:05;4.5;;;1.11;;
34453;SDS011;60061;52.080;5.312;2022-09-16T08:21:41;4.61;;;1.2;;
34453;SDS011;60061;52.080;5.312;2022-09-16T08:24:54;3.9;;;1.0;;
34453;SDS011;60061;52.080;5.312;2022-09-16T08:26:30;4.5;;;1.2;;
34453;SDS011;60061;52.080;5.312;2022-09-16T08:28:10;6.0;;;0.9;;
34453;SDS011;60061;52.080;5.312;2022-09-16T08:29:47;6.3;;;1.0;;
34453;SDS011;60061;52.080;5.312;2022-09-16T08:33:01;3.0;;;0.8;;
34453;SDS011;60061;52.080;5.312;2022-09-16T08:34:38;3.6;;;1.0;;
34453;SDS011;60061;52.080;5.312;2022-09-16T08:36:16;3.5;;;0.9;;
34453;SDS011;60061;52.080;5.312;2022-09-16T08:39:31;5.11;;;1.3;;
34453;SDS011;60061;52.080;5.312;2022-09-16T08:41:16;3.5;;;0.9;;
34453;SDS011;60061;52.080;5.312;2022-09-16T08:43:09;5.3;;;0.9;;
34453;SDS011;60061;52.080;5.312;2022-09-16T08:45:01;2.4;;;0.9;;
34453;SDS011;60061;52.080;5.312;2022-09-16T08:46:49;6.4;;;1.0;;
34453;SDS011;60061;52.080;5.312;2022-09-16T08:48:33;4.61;;;1.11;;
34453;SDS011;60061;52.080;5.312;2022-09-16T08:52:02;3.8;;;1.0;;
34453;SDS011;60061;52.080;5.312;2022-09-16T08:53:51;2.9;;;0.9;;
34453;SDS011;60061;52.080;5.312;2022-09-16T08:55:33;2.21;;;1.11;;
34453;SDS011;60061;52.080;5.312;2022-09-16T08:57:14;5.3;;;1.0;;
34453;SDS011;60061;52.080;5.312;2022-09-16T08:58:57;5.3;;;0.9;;
34453;SDS011;60061;52.080;5.312;2022-09-16T09:02:19;3.7;;;0.7;;
34453;SDS011;60061;52.080;5.312;2022-09-16T09:04:13;2.1;;;0.7;;
34453;SDS011;60061;52.080;5.312;2022-09-16T09:05:50;3.8;;;1.0;;
34453;SDS011;60061;52.080;5.312;2022-09-16T09:07:31;1.4;;;0.7;;
34453;SDS011;60061;52.080;5.312;2022-09-16T09:09:43;4.1;;;0.8;;
34453;SDS011;60061;52.080;5.312;2022-09-16T09:11:33;2.7;;;1.0;;
34453;SDS011;60061;52.080;5.312;2022-09-16T09:15:24;3.9;;;0.9;;
34453;SDS011;60061;52.080;5.312;2022-09-16T09:17:13;5.11;;;1.4;;
34453;SDS011;60061;52.080;5.312;2022-09-16T09:19:04;2.9;;;0.9;;
34453;SDS011;60061;52.080;5.312;2022-09-16T09:20:56;4.2;;;0.9;;
34453;SDS011;60061;52.080;5.312;2022-09-16T09:22:55;2.7;;;0.9;;
34453;SDS011;60061;52.080;5.312;2022-09-16T09:24:51;5.8;;;1.0;;
34453;SDS011;60061;52.080;5.312;2022-09-16T09:26:43;5.6;;;1.0;;
34453;SDS011;60061;52.080;5.312;2022-09-16T09:28:34;4.3;;;1.0;;
34453;SDS011;60061;52.080;5.312;2022-09-16T09:30:37;5.0;;;1.0;;
34453;SDS011;60061;52.080;5.312;2022-09-16T09:34:09;6.8;;;1.11;;
34453;SDS011;60061;52.080;5.312;2022-09-16T09:36:05;2.0;;;0.8;;
34453;SDS011;60061;52.080;5.312;2022-09-16T09:38:28;3.4;;;0.9;;
34453;SDS011;60061;52.080;5.312;2022-09-16T09:41:44;3.7;;;1.0;;
34453;SDS011;60061;52.080;5.312;2022-09-16T09:43:27;3.8;;;1.0;;
34453;SDS011;60061;52.080;5.312;2022-09-16T09:45:15;4.0;;;0.9;;
34453;SDS011;60061;52.080;5.312;2022-09-16T09:48:43;3.6;;;0.9;;
34453;SDS011;60061;52.080;5.312;2022-09-16T09:50:28;2.6;;;1.11;;
34453;SDS011;60061;52.080;5.312;2022-09-16T09:52:13;3.7;;;0.8;;
34453;SDS011;60061;52.080;5.312;2022-09-16T09:53:56;3.9;;;0.9;;
34453;SDS011;60061;52.080;5.312;2022-09-16T09:55:37;2.1;;;0.9;;
34453;SDS011;60061;52.080;5.312;2022-09-16T09:59:10;4.41;;;0.9;;
34453;SDS011;60061;52.080;5.312;2022-09-16T10:01:02;2.6;;;0.9;;
34453;SDS011;60061;52.080;5.312;2022-09-16T10:02:40;4.2;;;1.0;;
34453;SDS011;60061;52.080;5.312;2022-09-16T10:04:17;2.4;;;0.9;;
34453;SDS011;60061;52.080;5.312;2022-09-16T10:05:54;2.5;;;0.8;;
34453;SDS011;60061;52.080;5.312;2022-09-16T10:09:13;2.6;;;0.9;;
34453;SDS011;60061;52.080;5.312;2022-09-16T10:10:53;5.9;;;1.0;;
34453;SDS011;60061;52.080;5.312;2022-09-16T10:12:33;3.2;;;0.9;;
34453;SDS011;60061;52.080;5.312;2022-09-16T10:16:08;3.0;;;0.8;;
34453;SDS011;60061;52.080;5.312;2022-09-16T10:17:56;2.4;;;0.8;;
34453;SDS011;60061;52.080;5.312;2022-09-16T10:19:37;4.91;;;1.0;;
34453;SDS011;60061;52.080;5.312;2022-09-16T10:21:35;3.1;;;1.0;;
34453;SDS011;60061;52.080;5.312;2022-09-16T10:23:18;3.2;;;0.9;;
34453;SDS011;60061;52.080;5.312;2022-09-16T10:24:59;4.61;;;1.2;;
34453;SDS011;60061;52.080;5.312;2022-09-16T10:28:17;3.7;;;1.2;;
34453;SDS011;60061;52.080;5.312;2022-09-16T10:30:04;3.6;;;0.9;;
34453;SDS011;60061;52.080;5.312;2022-09-16T10:31:50;5.4;;;1.0;;
34453;SDS011;60061;52.080;5.312;2022-09-16T10:33:29;3.8;;;1.11;;
34453;SDS011;60061;52.080;5.312;2022-09-16T10:35:08;2.5;;;0.9;;
34453;SDS011;60061;52.080;5.312;2022-09-16T10:38:49;5.3;;;1.0;;
34453;SDS011;60061;52.080;5.312;2022-09-16T10:40:29;3.3;;;0.8;;
34453;SDS011;60061;52.080;5.312;2022-09-16T10:42:14;4.8;;;1.0;;
34453;SDS011;60061;52.080;5.312;2022-09-16T10:43:53;2.9;;;0.9;;
34453;SDS011;60061;52.080;5.312;2022-09-16T10:47:15;3.7;;;0.8;;
34453;SDS011;60061;52.080;5.312;2022-09-16T10:48:57;1.2;;;0.6;;
34453;SDS011;60061;52.080;5.312;2022-09-16T10:50:36;3.3;;;0.8;;
34453;SDS011;60061;52.080;5.312;2022-09-16T10:52:14;4.5;;;1.0;;
34453;SDS011;60061;52.080;5.312;2022-09-16T10:55:34;2.1;;;0.8;;
34453;SDS011;60061;52.080;5.312;2022-09-16T10:57:27;4.41;;;0.9;;
34453;SDS011;60061;52.080;5.312;2022-09-16T10:59:07;2.1;;;0.8;;
34453;SDS011;60061;52.080;5.312;2022-09-16T11:00:47;4.7;;;0.8;;
34453;SDS011;60061;52.080;5.312;2022-09-16T11:06:17;3.6;;;0.9;;
34453;SDS011;60061;52.080;5.312;2022-09-16T11:08:10;3.2;;;0.9;;
34453;SDS011;60061;52.080;5.312;2022-09-16T11:09:57;4.1;;;0.9;;
34453;SDS011;60061;52.080;5.312;2022-09-16T11:11:53;2.4;;;0.7;;
34453;SDS011;60061;52.080;5.312;2022-09-16T11:13:41;3.6;;;0.8;;
34453;SDS011;60061;52.080;5.312;2022-09-16T11:15:32;2.9;;;0.7;;
34453;SDS011;60061;52.080;5.312;2022-09-16T11:17:24;2.5;;;0.7;;
34453;SDS011;60061;52.080;5.312;2022-09-16T11:19:17;1.5;;;0.6;;
34453;SDS011;60061;52.080;5.312;2022-09-16T11:23:04;2.5;;;0.7;;
34453;SDS011;60061;52.080;5.312;2022-09-16T11:24:52;2.7;;;0.8;;
34453;SDS011;60061;52.080;5.312;2022-09-16T11:26:49;2.0;;;0.7;;
34453;SDS011;60061;52.080;5.312;2022-09-16T11:28:41;4.2;;;1.0;;
34453;SDS011;60061;52.080;5.312;2022-09-16T11:30:54;3.3;;;1.0;;
34453;SDS011;60061;52.080;5.312;2022-09-16T11:32:48;6.2;;;0.9;;
34453;SDS011;60061;52.080;5.312;2022-09-16T11:34:42;2.21;;;0.9;;
34453;SDS011;60061;52.080;5.312;2022-09-16T11:36:34;2.5;;;0.9;;
34453;SDS011;60061;52.080;5.312;2022-09-16T11:38:21;4.1;;;0.9;;
34453;SDS011;60061;52.080;5.312;2022-09-16T11:40:10;5.9;;;1.0;;
34453;SDS011;60061;52.080;5.312;2022-09-16T11:43:48;3.3;;;0.9;;
34453;SDS011;60061;52.080;5.312;2022-09-16T11:45:41;4.0;;;0.9;;
34453;SDS011;60061;52.080;5.312;2022-09-16T11:47:36;2.6;;;1.11;;
34453;SDS011;60061;52.080;5.312;2022-09-16T11:49:40;6.8;;;1.2;;
34453;SDS011;60061;52.080;5.312;2022-09-16T11:51:34;6.0;;;1.0;;
34453;SDS011;60061;52.080;5.312;2022-09-16T11:53:35;3.5;;;0.9;;
34453;SDS011;60061;52.080;5.312;2022-09-16T11:55:30;3.9;;;1.0;;
34453;SDS011;60061;52.080;5.312;2022-09-16T11:57:19;6.9;;;1.0;;
34453;SDS011;60061;52.080;5.312;2022-09-16T11:59:10;4.2;;;1.11;;
34453;SDS011;60061;52.080;5.312;2022-09-16T12:02:36;3.7;;;1.11;;
34453;SDS011;60061;52.080;5.312;2022-09-16T12:04:20;4.41;;;1.11;;
34453;SDS011;60061;52.080;5.312;2022-09-16T12:06:05;3.2;;;1.0;;
34453;SDS011;60061;52.080;5.312;2022-09-16T12:07:47;4.7;;;1.2;;
34453;SDS011;60061;52.080;5.312;2022-09-16T12:09:32;5.2;;;0.9;;
34453;SDS011;60061;52.080;5.312;2022-09-16T12:13:03;5.4;;;1.3;;
34453;SDS011;60061;52.080;5.312;2022-09-16T12:14:56;2.4;;;1.0;;
34453;SDS011;60061;52.080;5.312;2022-09-16T12:16:41;5.8;;;1.0;;
34453;SDS011;60061;52.080;5.312;2022-09-16T12:18:23;3.9;;;1.0;;
34453;SDS011;60061;52.080;5.312;2022-09-16T12:20:05;5.9;;;0.9;;
34453;SDS011;60061;52.080;5.312;2022-09-16T12:21:52;3.8;;;1.11;;
34453;SDS011;60061;52.080;5.312;2022-09-16T12:25:18;4.3;;;1.0;;
34453;SDS011;60061;52.080;5.312;2022-09-16T12:27:02;4.3;;;1.0;;
34453;SDS011;60061;52.080;5.312;2022-09-16T12:28:46;4.7;;;1.3;;
34453;SDS011;60061;52.080;5.312;2022-09-16T12:30:30;4.2;;;1.11;;
34453;SDS011;60061;52.080;5.312;2022-09-16T12:33:57;4.1;;;1.0;;
34453;SDS011;60061;52.080;5.312;2022-09-16T12:35:40;3.3;;;0.8;;
34453;SDS011;60061;52.080;5.312;2022-09-16T12:37:33;3.5;;;1.0;;
34453;SDS011;60061;52.080;5.312;2022-09-16T12:39:14;5.2;;;0.9;;
34453;SDS011;60061;52.080;5.312;2022-09-16T12:40:58;5.9;;;1.3;;
34453;SDS011;60061;52.080;5.312;2022-09-16T12:42:56;3.8;;;1.2;;
34453;SDS011;60061;52.080;5.312;2022-09-16T12:45:52;9.4;;;2.9;;
34453;SDS011;60061;52.080;5.312;2022-09-16T12:49:36;4.8;;;1.2;;
34453;SDS011;60061;52.080;5.312;2022-09-16T12:52:16;8.31;;;2.21;;
34453;SDS011;60061;52.080;5.312;2022-09-16T12:54:18;8.1;;;1.3;;
34453;SDS011;60061;52.080;5.312;2022-09-16T12:56:45;5.7;;;1.3;;
34453;SDS011;60061;52.080;5.312;2022-09-16T12:58:57;9.31;;;2.0;;
34453;SDS011;60061;52.080;5.312;2022-09-16T13:01:51;6.4;;;1.9;;
34453;SDS011;60061;52.080;5.312;2022-09-16T13:05:19;6.8;;;1.4;;
34453;SDS011;60061;52.080;5.312;2022-09-16T13:07:01;6.3;;;1.8;;
34453;SDS011;60061;52.080;5.312;2022-09-16T13:08:38;5.3;;;1.2;;
34453;SDS011;60061;52.080;5.312;2022-09-16T13:10:16;9.21;;;1.5;;